Time;durP1;ratioP1;P1;durP2;ratioP2;P2;SDS_P1;SDS_P2;PMS_P1;PMS_P2;Temp;Humidity;BMP_temperature;BMP_pressure;BME280_temperature;BME280_humidity;BME280_pressure;Samples;Min_cycle;Max_cycle;Signal;HPM_P1;HPM_P2
2021/10/13 00:02:01;;;;;;;0.80;0.50;;;4.70;99.90;;;;;;5072170;28;20211;-67
2021/10/13 00:04:30;;;;;;;0.80;0.50;;;4.70;99.90;;;;;;5072456;28;20212;-67
2021/10/13 00:06:58;;;;;;;0.90;0.50;;;4.70;99.90;;;;;;5072169;28;20238;-67
2021/10/13 00:09:26;;;;;;;0.80;0.50;;;4.70;99.90;;;;;;5071918;28;20603;-66
2021/10/13 00:11:54;;;;;;;0.80;0.50;;;4.70;99.90;;;;;;5071866;28;20212;-66
2021/10/13 00:14:22;;;;;;;0.80;0.50;;;4.70;99.90;;;;;;5071616;28;20583;-67
2021/10/13 00:16:55;;;;;;;0.80;0.50;;;4.70;99.90;;;;;;5071710;28;20183;-67
2021/10/13 00:19:25;;;;;;;0.80;0.50;;;4.70;99.90;;;;;;5071557;28;20172;-67
2021/10/13 00:21:53;;;;;;;0.80;0.50;;;4.70;99.90;;;;;;5071430;28;20246;-67
2021/10/13 00:24:21;;;;;;;0.80;0.50;;;4.60;99.90;;;;;;5071514;28;20229;-67
2021/10/13 00:26:49;;;;;;;0.80;0.50;;;4.60;99.90;;;;;;5071352;28;20192;-67
2021/10/13 00:29:17;;;;;;;0.80;0.50;;;4.70;99.90;;;;;;5053270;28;20681;-68
2021/10/13 00:31:45;;;;;;;0.80;0.50;;;4.70;99.90;;;;;;5071419;28;20204;-67
2021/10/13 00:34:14;;;;;;;0.80;0.50;;;4.70;99.90;;;;;;5071287;28;20242;-67
2021/10/13 00:36:44;;;;;;;1.33;0.75;;;4.60;99.90;;;;;;5071605;28;20206;-67
2021/10/13 00:39:13;;;;;;;0.80;0.50;;;4.60;99.90;;;;;;5071142;28;20266;-68
2021/10/13 00:41:41;;;;;;;1.52;0.82;;;4.60;99.90;;;;;;5071031;28;20203;-67
2021/10/13 00:44:09;;;;;;;0.80;0.50;;;4.50;99.90;;;;;;5070853;28;20215;-67
2021/10/13 00:46:37;;;;;;;0.80;0.50;;;4.60;99.90;;;;;;5071227;28;20514;-67
2021/10/13 00:49:05;;;;;;;0.85;0.55;;;4.50;99.90;;;;;;5071197;28;20603;-66
2021/10/13 00:51:34;;;;;;;0.95;0.70;;;4.50;99.90;;;;;;5071269;28;20710;-67
2021/10/13 00:54:04;;;;;;;0.80;0.50;;;4.50;99.90;;;;;;5071133;28;20196;-67
2021/10/13 00:56:32;;;;;;;0.80;0.50;;;4.40;99.90;;;;;;5071193;28;20195;-67
2021/10/13 00:59:00;;;;;;;1.02;0.93;;;4.40;99.90;;;;;;5072137;28;20181;-67
2021/10/13 01:01:32;;;;;;;0.90;0.70;;;4.40;99.90;;;;;;5071877;28;20218;-66
2021/10/13 01:04:15;;;;;;;0.80;0.50;;;4.40;99.90;;;;;;5072132;28;20230;-66
2021/10/13 01:06:52;;;;;;;1.08;0.70;;;4.30;99.90;;;;;;5072191;28;20203;-66
2021/10/13 01:09:26;;;;;;;0.80;0.50;;;4.30;99.90;;;;;;5075639;28;20567;-66
2021/10/13 01:12:16;;;;;;;0.80;0.50;;;4.30;99.90;;;;;;5074845;28;20208;-67
2021/10/13 01:14:50;;;;;;;1.00;0.60;;;4.20;99.90;;;;;;5074529;28;20195;-67
2021/10/13 01:17:26;;;;;;;0.80;0.47;;;4.20;99.90;;;;;;5056622;28;20202;-67
2021/10/13 01:20:02;;;;;;;0.80;0.50;;;4.30;99.90;;;;;;5074528;28;20210;-67
2021/10/13 01:22:59;;;;;;;0.80;0.50;;;4.20;99.90;;;;;;5074695;28;20207;-67
2021/10/13 01:25:45;;;;;;;0.90;0.50;;;4.20;99.90;;;;;;5074582;28;20195;-66
2021/10/13 01:28:17;;;;;;;0.80;0.50;;;4.20;99.90;;;;;;5074430;28;20561;-67
2021/10/13 01:30:50;;;;;;;0.80;0.50;;;4.20;99.90;;;;;;5056349;28;20223;-68
2021/10/13 01:33:24;;;;;;;0.80;0.50;;;4.20;99.90;;;;;;5074285;28;20204;-68
2021/10/13 01:35:55;;;;;;;0.80;0.60;;;4.10;99.90;;;;;;5074052;28;20196;-67
2021/10/13 01:38:28;;;;;;;0.80;0.50;;;4.10;99.90;;;;;;5074651;28;20633;-68
2021/10/13 01:41:02;;;;;;;0.80;0.50;;;4.10;99.90;;;;;;5074207;28;20708;-67
2021/10/13 01:43:35;;;;;;;0.80;0.50;;;4.10;99.90;;;;;;5074721;28;20656;-67
2021/10/13 01:46:04;;;;;;;0.80;0.50;;;4.10;99.90;;;;;;5074571;28;20180;-67
2021/10/13 01:48:34;;;;;;;0.80;0.50;;;4.00;99.90;;;;;;5074719;28;20192;-67
2021/10/13 01:51:03;;;;;;;0.80;0.50;;;4.00;99.90;;;;;;5075021;28;20643;-66
2021/10/13 01:53:32;;;;;;;0.80;0.50;;;4.00;99.90;;;;;;5076953;28;20672;-67
2021/10/13 01:56:02;;;;;;;0.80;0.50;;;3.90;99.90;;;;;;5079707;28;20540;-67
2021/10/13 01:58:32;;;;;;;0.80;0.50;;;3.90;99.90;;;;;;5078463;28;20192;-67
2021/10/13 02:01:03;;;;;;;0.90;0.55;;;3.90;99.90;;;;;;5078772;28;20180;-67
2021/10/13 02:03:34;;;;;;;0.80;0.60;;;3.90;99.90;;;;;;5077346;28;20164;-66
2021/10/13 02:06:03;;;;;;;0.80;0.50;;;3.90;99.90;;;;;;5077919;28;20587;-66
2021/10/13 02:08:35;;;;;;;0.80;0.50;;;3.80;99.90;;;;;;5078358;28;20194;-67
2021/10/13 02:11:05;;;;;;;0.90;0.60;;;3.70;99.90;;;;;;5059334;28;20192;-67
2021/10/13 02:13:36;;;;;;;0.80;0.50;;;3.70;99.90;;;;;;5074490;28;20212;-66
2021/10/13 02:16:07;;;;;;;0.80;0.50;;;3.70;99.90;;;;;;5074093;28;20184;-67
2021/10/13 02:18:38;;;;;;;0.80;0.50;;;3.70;99.90;;;;;;5073057;28;20362;-67
2021/10/13 02:21:07;;;;;;;0.80;0.50;;;3.70;99.90;;;;;;5073542;28;20177;-65
2021/10/13 02:23:37;;;;;;;0.80;0.50;;;3.70;99.90;;;;;;5073457;28;20643;-67
2021/10/13 02:26:11;;;;;;;0.80;0.57;;;3.70;99.90;;;;;;5073851;28;20217;-66
2021/10/13 02:28:44;;;;;;;0.80;0.60;;;3.70;99.90;;;;;;5055829;28;20195;-66
2021/10/13 02:31:12;;;;;;;0.80;0.50;;;3.70;99.90;;;;;;5073856;28;20184;-67
2021/10/13 02:33:40;;;;;;;0.80;0.50;;;3.70;99.90;;;;;;5073463;28;20208;-67
2021/10/13 02:36:08;;;;;;;1.25;0.85;;;3.60;99.90;;;;;;5073666;28;20164;-68
2021/10/13 02:38:36;;;;;;;0.80;0.50;;;3.60;99.90;;;;;;5073948;28;20664;-67
2021/10/13 02:41:05;;;;;;;0.80;0.50;;;3.60;99.90;;;;;;5073888;28;20219;-67
2021/10/13 02:43:33;;;;;;;0.80;0.50;;;3.60;99.90;;;;;;5073913;28;20467;-67
2021/10/13 02:46:07;;;;;;;0.80;0.60;;;3.60;99.90;;;;;;5074271;28;20193;-67
2021/10/13 02:48:37;;;;;;;0.80;0.50;;;3.60;99.90;;;;;;5072902;28;20183;-68
2021/10/13 02:51:11;;;;;;;1.23;0.70;;;3.70;99.90;;;;;;5072841;28;20191;-67
2021/10/13 02:53:47;;;;;;;0.80;0.60;;;3.70;99.90;;;;;;5072983;28;20196;-67
2021/10/13 02:56:23;;;;;;;0.80;0.50;;;3.70;99.90;;;;;;5073139;28;20230;-67
2021/10/13 02:59:00;;;;;;;0.80;0.50;;;3.60;99.90;;;;;;5072578;28;20660;-68
2021/10/13 03:01:37;;;;;;;0.80;0.50;;;3.60;99.90;;;;;;5073096;28;20207;-66
2021/10/13 03:04:10;;;;;;;0.80;0.50;;;3.60;99.90;;;;;;5072677;28;20263;-67
2021/10/13 03:06:40;;;;;;;0.80;0.50;;;3.60;99.90;;;;;;5117834;22;20223;-66
2021/10/13 03:09:09;;;;;;;0.80;0.50;;;3.50;99.90;;;;;;5094187;28;20258;-64
2021/10/13 03:11:39;;;;;;;0.80;0.50;;;3.50;99.90;;;;;;5093901;28;20261;-66
2021/10/13 03:14:08;;;;;;;0.80;0.50;;;3.50;99.90;;;;;;5093359;28;20203;-66
2021/10/13 03:16:40;;;;;;;0.90;0.70;;;3.50;99.90;;;;;;5093126;28;20180;-66
2021/10/13 03:19:09;;;;;;;0.80;0.50;;;3.50;99.90;;;;;;5093048;28;20210;-66
2021/10/13 03:21:40;;;;;;;0.80;0.50;;;3.50;99.90;;;;;;5093048;28;20203;-66
2021/10/13 03:24:08;;;;;;;0.80;0.50;;;3.50;99.90;;;;;;5092909;28;20171;-66
2021/10/13 03:26:37;;;;;;;0.80;0.50;;;3.50;99.90;;;;;;5093461;28;20171;-66
2021/10/13 03:29:05;;;;;;;0.80;0.50;;;3.60;99.90;;;;;;5093326;28;20183;-65
2021/10/13 03:31:33;;;;;;;0.80;0.50;;;3.60;99.90;;;;;;5093019;28;20210;-65
2021/10/13 03:34:03;;;;;;;0.80;0.50;;;3.60;99.90;;;;;;5092769;28;20199;-65
2021/10/13 03:36:38;;;;;;;0.80;0.50;;;3.50;99.90;;;;;;5092437;28;20187;-64
2021/10/13 03:39:06;;;;;;;0.80;0.50;;;3.50;99.90;;;;;;5074463;28;20179;-65
2021/10/13 03:41:35;;;;;;;0.80;0.50;;;3.50;99.90;;;;;;5092553;28;20211;-66
2021/10/13 03:44:03;;;;;;;0.80;0.50;;;3.40;99.90;;;;;;5092587;28;20175;-66
2021/10/13 03:46:32;;;;;;;0.80;0.50;;;3.40;99.90;;;;;;5092659;28;20180;-66
2021/10/13 03:49:01;;;;;;;0.80;0.50;;;3.50;99.90;;;;;;5092788;28;20183;-65
2021/10/13 03:51:30;;;;;;;0.80;0.50;;;3.40;99.90;;;;;;5092579;28;20207;-65
2021/10/13 03:53:58;;;;;;;0.80;0.50;;;3.40;99.90;;;;;;5074304;28;20683;-66
2021/10/13 03:56:30;;;;;;;1.00;0.80;;;3.40;99.90;;;;;;5092525;28;20230;-65
2021/10/13 03:59:00;;;;;;;0.80;0.50;;;3.40;99.90;;;;;;5093181;28;20274;-64
2021/10/13 04:01:28;;;;;;;0.80;0.50;;;3.40;99.90;;;;;;5092589;28;20211;-64
2021/10/13 04:03:56;;;;;;;0.80;0.50;;;3.40;99.90;;;;;;5092983;28;20183;-65
2021/10/13 04:06:24;;;;;;;0.80;0.50;;;3.40;99.90;;;;;;5092954;28;20195;-65
2021/10/13 04:08:54;;;;;;;0.80;0.50;;;3.50;99.90;;;;;;5092523;28;20640;-65
2021/10/13 04:11:22;;;;;;;0.80;0.50;;;3.50;99.90;;;;;;5092297;28;20211;-65
2021/10/13 04:13:51;;;;;;;0.98;0.65;;;3.60;99.90;;;;;;5092149;28;20242;-65
2021/10/13 04:16:19;;;;;;;2.55;1.60;;;3.60;99.90;;;;;;5074370;28;20202;-65
2021/10/13 04:18:47;;;;;;;0.80;0.50;;;3.60;99.90;;;;;;5092304;28;20182;-64
2021/10/13 04:21:15;;;;;;;0.80;0.50;;;3.70;99.90;;;;;;5092171;28;20214;-65
2021/10/13 04:23:43;;;;;;;0.80;0.50;;;3.70;99.90;;;;;;5092452;28;20641;-66
2021/10/13 04:26:13;;;;;;;0.80;0.50;;;3.80;99.90;;;;;;5092519;28;20192;-66
2021/10/13 04:28:41;;;;;;;0.80;0.50;;;3.80;99.90;;;;;;5092345;28;20183;-66
2021/10/13 04:31:10;;;;;;;0.80;0.50;;;4.00;99.90;;;;;;5092247;28;20729;-66
2021/10/13 04:33:38;;;;;;;0.80;0.50;;;4.00;99.90;;;;;;5074060;28;20211;-64
2021/10/13 04:36:06;;;;;;;0.93;0.70;;;4.00;99.90;;;;;;5092395;28;20175;-65
2021/10/13 04:38:35;;;;;;;2.13;0.70;;;4.10;99.90;;;;;;5092459;28;20179;-64
2021/10/13 04:41:03;;;;;;;0.80;0.50;;;4.20;99.90;;;;;;5091930;28;20180;-64
2021/10/13 04:43:33;;;;;;;0.80;0.50;;;4.10;99.90;;;;;;5096475;28;20179;-66
2021/10/13 04:46:01;;;;;;;0.80;0.60;;;4.10;99.90;;;;;;5100378;28;20171;-65
2021/10/13 04:48:29;;;;;;;0.80;0.60;;;4.20;99.90;;;;;;5100253;28;20175;-65
2021/10/13 04:50:57;;;;;;;0.80;0.50;;;4.20;99.90;;;;;;5099259;28;20671;-66
2021/10/13 04:53:26;;;;;;;0.80;0.50;;;4.20;99.90;;;;;;5100263;28;20175;-67
2021/10/13 04:55:54;;;;;;;0.80;0.50;;;4.10;99.90;;;;;;5103348;28;20179;-66
2021/10/13 04:58:22;;;;;;;0.80;0.60;;;4.10;99.90;;;;;;5099345;28;20539;-65
2021/10/13 05:00:52;;;;;;;0.80;0.50;;;4.00;99.90;;;;;;5100680;28;20180;-67
2021/10/13 05:03:20;;;;;;;0.90;0.68;;;4.00;99.90;;;;;;5099412;28;20183;-67
2021/10/13 05:05:48;;;;;;;0.80;0.40;;;4.00;99.90;;;;;;5097591;28;20178;-67
2021/10/13 05:08:16;;;;;;;1.05;0.95;;;3.90;99.90;;;;;;5097658;28;20176;-66
2021/10/13 05:10:45;;;;;;;0.80;0.50;;;3.80;99.90;;;;;;5096815;28;20187;-66
2021/10/13 05:13:14;;;;;;;0.80;0.50;;;3.80;99.90;;;;;;5097256;28;20218;-67
2021/10/13 05:15:42;;;;;;;0.80;0.50;;;3.70;99.90;;;;;;5076543;28;20195;-66
2021/10/13 05:18:12;;;;;;;0.80;0.50;;;3.60;99.90;;;;;;5098193;28;20188;-67
2021/10/13 05:20:41;;;;;;;0.80;0.60;;;3.60;99.90;;;;;;5083438;28;20181;-66
2021/10/13 05:23:09;;;;;;;1.63;0.90;;;3.60;99.90;;;;;;5058501;28;20223;-65
2021/10/13 05:25:38;;;;;;;0.80;0.50;;;3.60;99.90;;;;;;5090031;28;20203;-66
2021/10/13 05:28:06;;;;;;;0.80;0.50;;;3.50;99.90;;;;;;5075864;28;20238;-65
2021/10/13 05:30:34;;;;;;;0.80;0.50;;;3.50;99.90;;;;;;5075935;28;20698;-65
2021/10/13 05:33:02;;;;;;;0.80;0.50;;;3.50;99.90;;;;;;5075568;28;20212;-66
2021/10/13 05:35:31;;;;;;;0.80;0.50;;;3.50;99.90;;;;;;5076441;28;20277;-65
2021/10/13 05:38:00;;;;;;;1.13;0.90;;;3.60;99.90;;;;;;5078718;28;20200;-67
2021/10/13 05:40:28;;;;;;;0.80;0.50;;;3.60;99.90;;;;;;5081997;28;20188;-65
2021/10/13 05:42:56;;;;;;;0.80;0.50;;;3.70;99.90;;;;;;5065661;28;20208;-66
2021/10/13 05:45:25;;;;;;;0.80;0.50;;;3.70;99.90;;;;;;5075648;28;20275;-67
2021/10/13 05:47:53;;;;;;;1.90;0.70;;;3.80;99.90;;;;;;5075031;28;20180;-66
2021/10/13 05:50:21;;;;;;;0.80;0.50;;;4.00;99.90;;;;;;5074616;28;20180;-65
2021/10/13 05:52:51;;;;;;;0.80;0.50;;;4.10;99.90;;;;;;5075069;28;20216;-66
2021/10/13 05:55:39;;;;;;;0.80;0.50;;;4.20;99.90;;;;;;5074325;28;20246;-65
2021/10/13 05:58:07;;;;;;;0.80;0.50;;;4.20;99.90;;;;;;5056060;28;20624;-65
2021/10/13 06:00:36;;;;;;;0.80;0.50;;;4.30;99.90;;;;;;5074424;28;20600;-65
2021/10/13 06:03:04;;;;;;;0.80;0.50;;;4.30;99.90;;;;;;5074592;28;20224;-65
2021/10/13 06:05:32;;;;;;;1.60;0.95;;;4.40;99.90;;;;;;5074787;28;20179;-67
2021/10/13 06:08:02;;;;;;;0.80;0.50;;;4.40;99.90;;;;;;5075814;28;20196;-65
2021/10/13 06:10:30;;;;;;;0.80;0.50;;;4.40;99.90;;;;;;5074837;28;20204;-66
2021/10/13 06:12:58;;;;;;;0.80;0.50;;;4.50;99.90;;;;;;5074429;28;20215;-66
2021/10/13 06:15:34;;;;;;;0.95;0.57;;;4.60;99.90;;;;;;5074293;28;20204;-65
2021/10/13 06:18:04;;;;;;;0.80;0.50;;;4.70;99.90;;;;;;5074593;28;20682;-66
2021/10/13 06:20:33;;;;;;;0.90;0.60;;;4.80;99.90;;;;;;5074440;28;20180;-67
2021/10/13 06:23:03;;;;;;;0.80;0.50;;;4.90;99.90;;;;;;5074295;28;20215;-64
2021/10/13 06:25:31;;;;;;;0.93;0.70;;;5.00;99.90;;;;;;5065030;28;20717;-65
2021/10/13 06:28:00;;;;;;;0.80;0.50;;;5.20;99.90;;;;;;5094687;28;20191;-66
2021/10/13 06:30:29;;;;;;;2.05;1.55;;;5.20;99.90;;;;;;5094569;28;20229;-65
2021/10/13 06:32:57;;;;;;;0.80;0.50;;;5.30;99.90;;;;;;5094498;28;20203;-66
2021/10/13 06:35:25;;;;;;;0.80;0.50;;;5.30;99.90;;;;;;5094381;28;20203;-65
2021/10/13 06:37:53;;;;;;;1.27;0.73;;;5.30;99.90;;;;;;5094174;28;20172;-65
2021/10/13 06:40:22;;;;;;;1.23;0.63;;;5.30;99.90;;;;;;5094938;28;20569;-64
2021/10/13 06:42:51;;;;;;;0.80;0.50;;;5.30;99.90;;;;;;5094781;28;20213;-66
2021/10/13 06:45:19;;;;;;;0.80;0.50;;;5.30;99.90;;;;;;5094595;28;20199;-65
2021/10/13 06:47:47;;;;;;;0.80;0.50;;;5.40;99.90;;;;;;5094153;28;20182;-65
2021/10/13 06:50:15;;;;;;;1.70;0.93;;;5.40;99.90;;;;;;5094248;28;20171;-64
2021/10/13 06:52:44;;;;;;;1.35;0.98;;;5.40;99.90;;;;;;5094001;28;20582;-65
2021/10/13 06:55:13;;;;;;;0.80;0.50;;;5.40;99.90;;;;;;5093698;28;20191;-64
2021/10/13 06:57:43;;;;;;;0.80;0.50;;;5.40;99.90;;;;;;5094134;28;20707;-63
2021/10/13 07:00:13;;;;;;;0.80;0.50;;;5.50;99.90;;;;;;5093641;28;20191;-66
2021/10/13 07:02:41;;;;;;;0.80;0.50;;;5.60;99.90;;;;;;5093487;28;20207;-66
2021/10/13 07:05:09;;;;;;;0.90;0.60;;;5.70;99.90;;;;;;5093492;28;20755;-65
2021/10/13 07:07:42;;;;;;;0.90;0.70;;;5.70;99.90;;;;;;5093651;28;20659;-65
2021/10/13 07:10:11;;;;;;;0.95;0.85;;;5.70;99.90;;;;;;5093362;28;20174;-66
2021/10/13 07:12:39;;;;;;;1.00;0.70;;;5.80;99.90;;;;;;5075649;28;20223;-66
2021/10/13 07:15:10;;;;;;;0.80;0.50;;;5.90;99.90;;;;;;5093506;28;20195;-66
2021/10/13 07:17:39;;;;;;;1.25;0.93;;;6.00;99.90;;;;;;5093606;28;20182;-66
2021/10/13 07:20:08;;;;;;;0.88;0.73;;;6.00;99.90;;;;;;5095154;28;20671;-65
2021/10/13 07:22:37;;;;;;;2.78;1.15;;;6.00;99.90;;;;;;5100853;28;20253;-66
2021/10/13 07:25:06;;;;;;;1.20;1.10;;;6.20;99.90;;;;;;5101673;28;20233;-66
2021/10/13 07:27:35;;;;;;;5.18;1.35;;;6.30;99.90;;;;;;5102056;28;20176;-63
2021/10/13 07:30:04;;;;;;;0.80;0.50;;;6.30;99.90;;;;;;5102481;28;20180;-64
2021/10/13 07:32:35;;;;;;;0.80;0.60;;;6.30;99.90;;;;;;5098142;28;20251;-65
2021/10/13 07:35:20;;;;;;;0.80;0.57;;;6.40;99.90;;;;;;5079068;28;20211;-65
2021/10/13 07:37:49;;;;;;;0.90;0.63;;;6.40;99.90;;;;;;5094022;28;20438;-66
2021/10/13 07:40:17;;;;;;;0.90;0.65;;;6.50;99.90;;;;;;5098461;28;20226;-65
2021/10/13 07:42:46;;;;;;;0.80;0.50;;;6.40;99.90;;;;;;5093865;28;20628;-65
2021/10/13 07:45:16;;;;;;;0.80;0.50;;;6.50;99.90;;;;;;5087838;28;20180;-65
2021/10/13 07:47:45;;;;;;;1.15;1.05;;;6.60;99.90;;;;;;5072632;28;20196;-65
2021/10/13 07:50:15;;;;;;;0.80;0.50;;;6.70;99.90;;;;;;5078840;28;20190;-64
2021/10/13 07:52:43;;;;;;;0.80;0.50;;;7.00;99.90;;;;;;5069940;28;20240;-64
2021/10/13 07:55:11;;;;;;;1.10;0.63;;;7.20;99.90;;;;;;5089408;28;20187;-64
2021/10/13 07:57:39;;;;;;;1.00;0.85;;;7.20;99.90;;;;;;5092907;28;20192;-64
2021/10/13 08:00:08;;;;;;;0.80;0.50;;;7.10;99.90;;;;;;5092800;28;20175;-66
2021/10/13 08:02:43;;;;;;;0.95;0.70;;;7.00;99.90;;;;;;5082929;28;20207;-66
2021/10/13 08:05:13;;;;;;;0.80;0.50;;;7.00;99.90;;;;;;5096012;28;20179;-65
2021/10/13 08:07:41;;;;;;;0.90;0.70;;;7.20;99.90;;;;;;5093660;28;20260;-65
2021/10/13 08:10:09;;;;;;;0.90;0.70;;;7.40;99.90;;;;;;5073908;28;20621;-64
2021/10/13 08:12:38;;;;;;;3.47;1.23;;;7.70;99.90;;;;;;5079901;28;20211;-65
2021/10/13 08:15:07;;;;;;;1.75;1.65;;;7.70;99.90;;;;;;5093403;28;20176;-65
2021/10/13 08:17:36;;;;;;;1.33;0.75;;;7.80;99.90;;;;;;5087494;28;20560;-66
2021/10/13 08:20:07;;;;;;;0.90;0.50;;;7.80;99.90;;;;;;5077836;28;20186;-66
2021/10/13 08:22:38;;;;;;;1.00;0.80;;;7.80;99.90;;;;;;5085913;28;20207;-65
2021/10/13 08:25:07;;;;;;;2.47;1.15;;;7.90;99.90;;;;;;5085287;28;20215;-66
2021/10/13 08:27:35;;;;;;;2.55;1.10;;;8.00;99.90;;;;;;5092712;28;20170;-66
2021/10/13 08:30:04;;;;;;;1.50;0.70;;;8.10;99.90;;;;;;5092544;28;20186;-65
2021/10/13 08:32:32;;;;;;;0.80;0.50;;;8.20;99.90;;;;;;5092126;28;20347;-65
2021/10/13 08:35:00;;;;;;;1.15;0.63;;;8.20;99.90;;;;;;5092415;28;20261;-66
2021/10/13 08:37:28;;;;;;;1.00;0.90;;;8.40;99.90;;;;;;5092421;28;20562;-65
2021/10/13 08:39:58;;;;;;;0.80;0.40;;;8.60;99.90;;;;;;5092312;28;20191;-64
2021/10/13 08:42:27;;;;;;;1.80;1.27;;;8.70;99.90;;;;;;5092130;28;20199;-65
2021/10/13 08:44:56;;;;;;;0.88;0.50;;;8.80;99.90;;;;;;5092152;28;20183;-63
2021/10/13 08:47:25;;;;;;;1.10;1.00;;;8.90;99.90;;;;;;5073928;28;20270;-64
2021/10/13 08:49:55;;;;;;;1.90;1.35;;;9.00;99.90;;;;;;5091006;28;20641;-67
2021/10/13 08:52:24;;;;;;;0.80;0.60;;;8.80;99.90;;;;;;5071702;28;20204;-63
2021/10/13 08:54:55;;;;;;;0.80;0.50;;;8.60;99.90;;;;;;5085898;28;20218;-64
2021/10/13 08:57:26;;;;;;;1.48;0.90;;;8.60;99.90;;;;;;5080436;28;20208;-64
2021/10/13 08:59:54;;;;;;;1.00;0.50;;;8.50;99.90;;;;;;5074241;28;20187;-65
2021/10/13 09:02:38;;;;;;;0.80;0.50;;;8.50;99.90;;;;;;5071125;28;20767;-63
2021/10/13 09:05:09;;;;;;;0.80;0.50;;;8.60;99.90;;;;;;5071591;28;20195;-63
2021/10/13 09:07:38;;;;;;;0.80;0.50;;;8.80;99.90;;;;;;5081192;28;20226;-64
2021/10/13 09:10:10;;;;;;;0.80;0.55;;;9.00;1.00;;;;;;5080617;28;20203;-63
2021/10/13 09:12:40;;;;;;;0.80;0.50;;;9.20;99.90;;;;;;5083998;28;20245;-64
2021/10/13 09:15:11;;;;;;;1.00;0.60;;;9.20;99.90;;;;;;5086046;28;20266;-63
2021/10/13 09:17:54;;;;;;;0.80;0.50;;;9.20;99.90;;;;;;5081845;28;20197;-61
2021/10/13 09:20:26;;;;;;;0.80;0.50;;;9.20;99.90;;;;;;5074328;28;20245;-64
2021/10/13 09:22:59;;;;;;;0.80;0.50;;;9.20;99.90;;;;;;5077200;28;20686;-64
2021/10/13 09:25:28;;;;;;;0.80;0.50;;;9.20;99.90;;;;;;5071779;28;20195;-64
2021/10/13 09:27:58;;;;;;;0.80;0.50;;;9.20;99.90;;;;;;5073069;28;20187;-66
2021/10/13 09:30:29;;;;;;;0.80;0.60;;;9.30;99.90;;;;;;5077438;28;20220;-64
2021/10/13 09:33:10;;;;;;;0.90;0.50;;;9.40;99.90;;;;;;5080979;28;20239;-65
2021/10/13 09:35:44;;;;;;;1.10;0.70;;;9.60;99.90;;;;;;5083633;28;20187;-65
2021/10/13 09:38:17;;;;;;;1.00;0.70;;;9.70;99.90;;;;;;5077988;28;20257;-66
2021/10/13 09:40:46;;;;;;;0.90;0.60;;;9.90;99.90;;;;;;5081038;28;20180;-65
2021/10/13 09:43:35;;;;;;;0.90;0.55;;;10.00;99.90;;;;;;5086374;28;20664;-64
2021/10/13 09:46:06;;;;;;;3.38;0.75;;;10.10;99.90;;;;;;5084672;28;20217;-64
2021/10/13 09:48:36;;;;;;;0.90;0.73;;;10.30;99.90;;;;;;5095092;28;20219;-64
2021/10/13 09:51:19;;;;;;;0.80;0.47;;;10.30;99.90;;;;;;5090829;28;20192;-64
2021/10/13 09:53:49;;;;;;;1.05;0.73;;;10.20;99.90;;;;;;5087800;28;20278;-66
2021/10/13 09:56:32;;;;;;;1.17;1.08;;;10.20;99.90;;;;;;5078258;28;20251;-64
2021/10/13 09:59:13;;;;;;;0.80;0.40;;;10.30;99.90;;;;;;5075025;28;20263;-62
2021/10/13 10:01:45;;;;;;;0.90;0.68;;;10.30;99.90;;;;;;5080256;28;20219;-65
2021/10/13 10:04:18;;;;;;;1.85;1.13;;;10.20;99.90;;;;;;5080591;28;20191;-65
2021/10/13 10:06:50;;;;;;;0.80;0.50;;;10.10;99.90;;;;;;5095087;28;20195;-65
2021/10/13 10:09:20;;;;;;;1.00;0.75;;;10.20;99.90;;;;;;5105180;28;20218;-62
2021/10/13 10:11:50;;;;;;;2.03;0.70;;;10.30;99.90;;;;;;5096199;28;20711;-62
2021/10/13 10:14:47;;;;;;;1.10;0.50;;;10.30;99.90;;;;;;5089505;28;20188;-64
2021/10/13 10:17:39;;;;;;;2.00;1.00;;;10.40;99.90;;;;;;5089062;28;20199;-64
2021/10/13 10:20:08;;;;;;;1.00;0.60;;;10.50;99.90;;;;;;5081905;28;20188;-64
2021/10/13 10:22:47;;;;;;;1.10;0.80;;;10.60;99.90;;;;;;5082829;28;20215;-63
2021/10/13 10:25:15;;;;;;;1.27;0.90;;;10.80;99.90;;;;;;5089343;28;20421;-64
2021/10/13 10:27:43;;;;;;;1.53;0.60;;;10.80;99.90;;;;;;5086435;28;20933;-64
2021/10/13 10:30:20;;;;;;;1.20;1.10;;;10.90;99.90;;;;;;5092491;28;20449;-66
2021/10/13 10:33:17;;;;;;;0.90;0.57;;;10.90;99.90;;;;;;5092387;28;20452;-64
2021/10/13 10:35:46;;;;;;;1.10;0.90;;;11.00;99.90;;;;;;5073946;28;20513;-66
2021/10/13 10:38:18;;;;;;;1.30;0.63;;;11.20;99.90;;;;;;5079201;28;20512;-65
2021/10/13 10:40:47;;;;;;;1.47;0.60;;;11.40;99.90;;;;;;5073163;28;20473;-64
2021/10/13 10:43:24;;;;;;;1.00;0.63;;;11.60;99.90;;;;;;5065698;28;20454;-65
2021/10/13 10:45:55;;;;;;;1.00;0.60;;;11.60;99.90;;;;;;5093402;28;20418;-64
2021/10/13 10:48:25;;;;;;;0.80;0.50;;;11.60;99.90;;;;;;5091363;28;20417;-65
2021/10/13 10:51:01;;;;;;;1.13;0.60;;;11.70;99.90;;;;;;5082198;28;20421;-64
2021/10/13 10:53:36;;;;;;;0.90;0.53;;;11.70;99.90;;;;;;5082976;28;20445;-64
2021/10/13 10:56:21;;;;;;;1.20;0.70;;;11.80;99.90;;;;;;5084171;28;20428;-65
2021/10/13 10:59:11;;;;;;;0.90;0.53;;;12.00;99.90;;;;;;5079479;28;20540;-65
2021/10/13 11:02:04;;;;;;;1.63;1.13;;;12.20;99.90;;;;;;5083765;28;20473;-63
2021/10/13 11:04:33;;;;;;;1.73;0.60;;;12.20;99.90;;;;;;5064389;28;20759;-64
2021/10/13 11:07:18;;;;;;;0.80;0.50;;;12.20;99.90;;;;;;5086448;28;20441;-64
2021/10/13 11:09:46;;;;;;;0.80;0.50;;;12.10;99.90;;;;;;5078908;28;20429;-65
2021/10/13 11:12:14;;;;;;;1.20;0.83;;;12.20;99.90;;;;;;5076914;28;20998;-64
2021/10/13 11:14:42;;;;;;;1.00;0.77;;;12.10;99.90;;;;;;5080904;28;20430;-64
2021/10/13 11:17:12;;;;;;;0.90;0.60;;;12.20;99.90;;;;;;5080909;28;20461;-64
2021/10/13 11:19:43;;;;;;;0.80;0.50;;;12.20;99.90;;;;;;5075496;28;20786;-64
2021/10/13 11:22:12;;;;;;;0.90;0.50;;;12.30;99.90;;;;;;5067187;28;20518;-65
2021/10/13 11:24:47;;;;;;;1.00;0.87;;;12.30;99.90;;;;;;5086480;28;20491;-66
2021/10/13 11:27:23;;;;;;;0.90;0.57;;;12.50;99.90;;;;;;5084323;28;20413;-64
2021/10/13 11:29:51;;;;;;;1.13;0.70;;;12.50;99.90;;;;;;5064617;28;20933;-64
2021/10/13 11:32:23;;;;;;;4.30;1.77;;;12.80;99.90;;;;;;5077638;28;20449;-64
2021/10/13 11:34:59;;;;;;;1.13;1.03;;;13.00;99.90;;;;;;5072182;28;20407;-64
2021/10/13 11:37:29;;;;;;;0.90;0.53;;;13.20;99.90;;;;;;5087091;28;20515;-65
2021/10/13 11:39:57;;;;;;;0.90;0.50;;;13.30;99.90;;;;;;5078452;28;20421;-65
2021/10/13 11:42:27;;;;;;;1.00;0.67;;;13.20;99.90;;;;;;5065961;28;20475;-65
2021/10/13 11:44:56;;;;;;;0.83;0.50;;;13.00;99.90;;;;;;5089377;28;20417;-66
2021/10/13 11:47:33;;;;;;;1.73;1.63;;;13.00;99.90;;;;;;5077156;28;20417;-65
2021/10/13 11:50:03;;;;;;;0.80;0.40;;;12.90;99.90;;;;;;5072225;28;20422;-65
2021/10/13 11:52:32;;;;;;;1.00;0.50;;;13.00;99.90;;;;;;5074259;28;20425;-64
2021/10/13 11:55:04;;;;;;;0.87;0.50;;;13.20;99.90;;;;;;5078241;28;20454;-65
2021/10/13 11:57:33;;;;;;;0.90;0.63;;;13.50;99.90;;;;;;5092683;28;20503;-65
2021/10/13 12:00:12;;;;;;;1.10;0.90;;;13.90;99.90;;;;;;5092349;28;20416;-65
2021/10/13 12:02:42;;;;;;;1.10;0.70;;;14.20;99.90;;;;;;5092271;28;20441;-63
2021/10/13 12:05:11;;;;;;;1.37;0.83;;;14.20;99.90;;;;;;5092377;28;20388;-64
2021/10/13 12:07:44;;;;;;;1.33;0.77;;;14.10;99.90;;;;;;5092352;28;20404;-64
2021/10/13 12:10:13;;;;;;;0.90;0.50;;;14.10;99.90;;;;;;5092578;28;20946;-65
2021/10/13 12:13:00;;;;;;;0.90;0.50;;;14.10;99.70;;;;;;5092399;28;20468;-65
2021/10/13 12:15:29;;;;;;;1.10;0.70;;;14.20;98.50;;;;;;5092469;28;20853;-64
2021/10/13 12:18:15;;;;;;;0.90;0.40;;;14.40;97.30;;;;;;5092383;28;20987;-64
2021/10/13 12:20:44;;;;;;;0.90;0.50;;;14.20;95.20;;;;;;5074647;28;20429;-65
2021/10/13 12:23:14;;;;;;;1.60;0.80;;;14.10;95.40;;;;;;5092161;28;20437;-65
2021/10/13 12:25:43;;;;;;;1.43;1.10;;;14.00;95.70;;;;;;5092202;28;20433;-64
2021/10/13 12:28:16;;;;;;;1.03;0.77;;;14.20;94.50;;;;;;5092470;28;20925;-63
2021/10/13 12:30:46;;;;;;;1.00;0.70;;;14.00;99.90;;;;;;5092586;28;20512;-64
2021/10/13 12:33:17;;;;;;;1.00;0.60;;;14.00;92.20;;;;;;5092679;28;20441;-64
2021/10/13 12:35:46;;;;;;;0.80;0.47;;;13.80;92.00;;;;;;5092329;28;20392;-64
2021/10/13 12:38:16;;;;;;;1.47;0.60;;;14.00;92.90;;;;;;5092217;28;20461;-64
2021/10/13 12:41:00;;;;;;;0.80;0.50;;;14.00;91.70;;;;;;5092323;28;20402;-64
2021/10/13 12:43:28;;;;;;;1.00;0.60;;;14.00;91.70;;;;;;5092534;28;20406;-63
2021/10/13 12:46:17;;;;;;;1.10;0.63;;;14.10;91.40;;;;;;5092078;28;20406;-63
2021/10/13 12:48:47;;;;;;;0.90;0.50;;;14.20;90.40;;;;;;5092147;28;20898;-64
2021/10/13 12:51:16;;;;;;;0.90;0.80;;;14.30;86.20;;;;;;5092070;28;20445;-65
2021/10/13 12:53:45;;;;;;;0.90;0.50;;;14.40;85.50;;;;;;5091751;28;20400;-64
2021/10/13 12:56:16;;;;;;;0.90;0.50;;;14.20;80.70;;;;;;5091890;28;20432;-64
2021/10/13 12:58:48;;;;;;;1.20;0.83;;;14.20;80.90;;;;;;5091709;28;20449;-65
2021/10/13 13:01:16;;;;;;;0.90;0.60;;;14.40;81.50;;;;;;5092091;28;20481;-63
2021/10/13 13:03:46;;;;;;;1.07;0.80;;;14.30;76.80;;;;;;5093419;28;20490;-67
2021/10/13 13:06:14;;;;;;;1.50;1.40;;;14.00;74.70;;;;;;5095965;28;20440;-64
2021/10/13 13:08:42;;;;;;;0.90;0.53;;;13.80;76.00;;;;;;5096697;28;21010;-65
2021/10/13 13:11:10;;;;;;;2.00;1.40;;;13.80;77.00;;;;;;5096150;28;20475;-65
2021/10/13 13:13:38;;;;;;;1.07;0.60;;;13.80;76.00;;;;;;5095772;28;20396;-64
2021/10/13 13:16:07;;;;;;;1.47;1.33;;;14.00;76.40;;;;;;5095687;28;20449;-63